createdAt,value
2022-11-17T00:01:59.939Z,12.00
2022-11-17T00:04:30.179Z,11.63
2022-11-17T00:07:00.660Z,12.00
2022-11-17T00:09:27.503Z,11.97
2022-11-17T00:12:12.832Z,11.10
2022-11-17T00:14:41.316Z,10.77
2022-11-17T00:17:10.590Z,10.67
2022-11-17T00:19:56.814Z,10.30
2022-11-17T00:22:24.686Z,9.83
2022-11-17T00:24:51.509Z,11.57
2022-11-17T00:27:18.464Z,11.20
2022-11-17T00:29:45.313Z,8.67
2022-11-17T00:32:33.324Z,11.77
2022-11-17T00:35:00.372Z,10.30
2022-11-17T00:37:30.136Z,12.70
2022-11-17T00:40:00.730Z,8.37
2022-11-17T00:42:28.333Z,9.17
2022-11-17T00:44:55.295Z,9.87
2022-11-17T00:47:22.237Z,9.97
2022-11-17T00:49:49.203Z,8.37
2022-11-17T00:52:16.037Z,7.73
2022-11-17T00:54:42.902Z,9.63
2022-11-17T00:57:09.624Z,8.87
2022-11-17T00:59:36.729Z,4.87
2022-11-17T01:02:03.947Z,9.93
2022-11-17T01:04:30.795Z,6.17
2022-11-17T01:06:57.640Z,8.63
2022-11-17T01:09:25.963Z,9.27
2022-11-17T01:11:53.921Z,6.37
2022-11-17T01:14:24.839Z,6.60
2022-11-17T01:16:52.639Z,6.67
2022-11-17T01:19:20.235Z,7.97
2022-11-17T01:21:47.308Z,7.47
2022-11-17T01:24:16.425Z,7.67
2022-11-17T01:26:45.236Z,6.03
2022-11-17T01:29:15.271Z,6.93
2022-11-17T01:31:45.610Z,7.70
2022-11-17T01:34:13.038Z,6.40
2022-11-17T01:37:00.754Z,4.77
2022-11-17T01:39:29.003Z,7.07
2022-11-17T01:41:56.991Z,6.20
2022-11-17T01:44:42.010Z,9.50
2022-11-17T01:47:38.352Z,5.17
2022-11-17T01:50:23.784Z,5.20
2022-11-17T01:52:52.073Z,5.97
2022-11-17T01:55:21.182Z,6.87
2022-11-17T01:57:54.352Z,5.80
2022-11-17T02:00:21.192Z,5.77
2022-11-17T02:02:48.879Z,6.17
2022-11-17T02:05:24.590Z,7.40
2022-11-17T02:07:54.801Z,7.13
2022-11-17T02:10:21.988Z,5.97
2022-11-17T02:12:49.057Z,5.73
2022-11-17T02:15:15.891Z,7.33
2022-11-17T02:17:43.585Z,7.07
2022-11-17T02:20:14.644Z,6.37
2022-11-17T02:23:32.069Z,5.77
2022-11-17T02:26:04.811Z,7.70
2022-11-17T02:28:35.030Z,5.07
2022-11-17T02:31:07.988Z,6.47
2022-11-17T02:33:46.695Z,8.27
2022-11-17T02:36:16.713Z,5.97
2022-11-17T02:38:48.407Z,6.67
2022-11-17T02:41:30.398Z,6.47
2022-11-17T02:44:20.155Z,9.33
2022-11-17T02:46:51.254Z,5.70
2022-11-17T02:49:26.156Z,6.53
2022-11-17T02:51:56.840Z,8.03
2022-11-17T02:54:26.875Z,6.10
2022-11-17T02:56:54.056Z,5.13
2022-11-17T02:59:26.803Z,4.83
2022-11-17T03:02:18.423Z,5.13
2022-11-17T03:04:59.506Z,5.43
2022-11-17T03:07:46.045Z,4.00
2022-11-17T03:10:38.320Z,5.53
2022-11-17T03:13:14.134Z,6.43
2022-11-17T03:15:53.319Z,4.30
2022-11-17T03:18:30.949Z,5.67
2022-11-17T03:21:36.772Z,5.87
2022-11-17T03:24:16.805Z,3.93
2022-11-17T03:26:50.343Z,4.23
2022-11-17T03:29:21.531Z,6.00
2022-11-17T03:31:52.402Z,4.47
2022-11-17T03:34:23.528Z,8.20
2022-11-17T03:36:55.895Z,7.53
2022-11-17T03:39:30.516Z,4.17
2022-11-17T03:42:03.201Z,8.57
2022-11-17T03:44:34.097Z,5.77
2022-11-17T03:47:04.813Z,4.90
2022-11-17T03:49:48.312Z,7.93
2022-11-17T03:52:15.643Z,4.47
2022-11-17T03:54:42.833Z,4.77
2022-11-17T03:57:34.505Z,7.70
2022-11-17T04:00:08.273Z,4.67
2022-11-17T04:02:43.323Z,5.20
2022-11-17T04:05:11.578Z,2.90
2022-11-17T04:07:41.091Z,3.57
2022-11-17T04:10:19.489Z,4.57
2022-11-17T04:13:05.382Z,5.07
2022-11-17T04:15:51.216Z,4.97
2022-11-17T04:18:18.728Z,4.40
2022-11-17T04:20:49.203Z,5.03
2022-11-17T04:23:16.586Z,4.73
2022-11-17T04:26:04.414Z,4.97
2022-11-17T04:28:39.232Z,3.50
2022-11-17T04:31:26.838Z,4.20
2022-11-17T04:34:01.915Z,3.77
2022-11-17T04:36:30.154Z,3.33
2022-11-17T04:38:58.774Z,3.30
2022-11-17T04:41:47.354Z,4.63
2022-11-17T04:44:16.456Z,4.73
2022-11-17T04:46:44.662Z,3.87
2022-11-17T04:49:12.403Z,4.00
2022-11-17T04:51:39.926Z,5.07
2022-11-17T04:54:07.961Z,5.10
2022-11-17T04:56:35.127Z,4.10
2022-11-17T04:59:02.278Z,3.17
2022-11-17T05:01:29.876Z,3.80
2022-11-17T05:03:59.754Z,4.70
2022-11-17T05:06:32.380Z,3.33
2022-11-17T05:09:02.244Z,4.03
2022-11-17T05:11:48.865Z,3.77
2022-11-17T05:14:18.814Z,2.87
2022-11-17T05:17:09.388Z,4.30
2022-11-17T05:19:42.487Z,3.50
2022-11-17T05:22:28.401Z,4.10
2022-11-17T05:24:56.489Z,3.07
2022-11-17T05:27:24.486Z,2.97
2022-11-17T05:29:51.389Z,2.70
2022-11-17T05:32:18.249Z,3.97
2022-11-17T05:34:45.118Z,3.10
2022-11-17T05:37:11.926Z,3.93
2022-11-17T05:39:38.913Z,3.27
2022-11-17T05:42:05.875Z,3.03
2022-11-17T05:44:32.622Z,3.83
2022-11-17T05:46:59.803Z,6.70
2022-11-17T05:49:26.586Z,5.07
2022-11-17T05:51:53.430Z,4.03
2022-11-17T05:54:20.739Z,3.10
2022-11-17T05:56:54.192Z,4.20
2022-11-17T05:59:49.420Z,3.60
2022-11-17T06:02:23.588Z,4.53
2022-11-17T06:04:52.084Z,4.07
2022-11-17T06:07:19.564Z,3.07
2022-11-17T06:09:46.827Z,3.50
2022-11-17T06:12:15.415Z,3.50
2022-11-17T06:14:42.783Z,3.60
2022-11-17T06:17:39.173Z,2.80
2022-11-17T06:20:09.058Z,2.97
2022-11-17T06:22:36.718Z,2.43
2022-11-17T06:25:05.463Z,3.43
2022-11-17T06:27:33.107Z,2.90
2022-11-17T06:30:04.735Z,3.80
2022-11-17T06:32:37.199Z,2.87
2022-11-17T06:35:07.844Z,4.17
2022-11-17T06:37:34.804Z,2.53
2022-11-17T06:40:01.753Z,3.07
2022-11-17T06:42:46.945Z,3.30
2022-11-17T06:45:14.075Z,2.50
2022-11-17T06:47:40.973Z,2.63
2022-11-17T06:50:08.380Z,2.13
2022-11-17T06:52:35.587Z,2.70
2022-11-17T06:55:02.567Z,2.20
2022-11-17T06:57:30.269Z,2.80
2022-11-17T06:59:57.387Z,1.93
2022-11-17T07:02:24.175Z,1.90
2022-11-17T07:04:50.981Z,2.43
2022-11-17T07:07:18.085Z,2.00
2022-11-17T07:09:44.946Z,2.03
2022-11-17T07:12:11.858Z,1.90
2022-11-17T07:14:39.066Z,1.67
2022-11-17T07:17:07.006Z,2.20
2022-11-17T07:19:33.996Z,3.07
2022-11-17T07:22:01.239Z,2.47
2022-11-17T07:24:28.083Z,2.17
2022-11-17T07:26:55.127Z,2.03
2022-11-17T07:29:22.215Z,3.07
2022-11-17T07:31:49.062Z,3.03
2022-11-17T07:34:15.928Z,1.60
2022-11-17T07:36:43.273Z,1.90
2022-11-17T07:39:10.070Z,2.60
2022-11-17T07:41:36.971Z,3.23
2022-11-17T07:44:04.262Z,3.90
2022-11-17T07:46:31.047Z,2.20
2022-11-17T07:48:57.948Z,2.67
2022-11-17T07:51:25.274Z,1.97
2022-11-17T07:53:52.226Z,2.87
2022-11-17T07:56:19.025Z,2.30
2022-11-17T07:58:46.194Z,1.73
2022-11-17T08:01:15.675Z,2.10
2022-11-17T08:03:43.921Z,2.23
2022-11-17T08:06:11.211Z,2.07
2022-11-17T08:08:38.960Z,1.83
2022-11-17T08:11:08.120Z,2.13
2022-11-17T08:13:36.128Z,2.30
2022-11-17T08:16:03.051Z,2.50
2022-11-17T08:18:30.586Z,1.97
2022-11-17T08:21:13.723Z,2.50
2022-11-17T08:23:43.556Z,2.10
2022-11-17T08:26:11.817Z,1.63
2022-11-17T08:28:39.793Z,2.23
2022-11-17T08:31:08.245Z,3.13
2022-11-17T08:33:35.123Z,2.43
2022-11-17T08:36:04.227Z,3.57
2022-11-17T08:38:31.314Z,2.00
2022-11-17T08:41:01.296Z,2.10
2022-11-17T08:43:28.154Z,1.77
2022-11-17T08:45:55.009Z,2.07
2022-11-17T08:48:22.000Z,2.40
2022-11-17T08:50:49.959Z,1.90
2022-11-17T08:53:21.960Z,1.57
2022-11-17T08:55:50.050Z,2.23
2022-11-17T08:58:17.080Z,1.83
2022-11-17T09:00:45.676Z,1.77
2022-11-17T09:03:13.544Z,1.53
2022-11-17T09:05:43.222Z,1.63
2022-11-17T09:08:43.323Z,1.53
2022-11-17T09:10:57.536Z,1.50
2022-11-17T09:13:24.869Z,1.50
2022-11-17T09:15:51.687Z,1.47
2022-11-17T09:18:18.741Z,1.83
2022-11-17T09:20:46.350Z,2.40
2022-11-17T09:23:13.329Z,1.40
2022-11-17T09:25:40.294Z,1.57
2022-11-17T09:28:07.316Z,1.40
2022-11-17T09:30:34.198Z,1.70
2022-11-17T09:33:01.320Z,2.63
2022-11-17T09:35:28.120Z,1.40
2022-11-17T09:37:59.676Z,1.53
2022-11-17T09:40:28.485Z,1.63
2022-11-17T09:42:57.896Z,1.90
2022-11-17T09:45:33.355Z,2.53
2022-11-17T09:48:25.877Z,2.50
2022-11-17T09:50:58.208Z,1.93
2022-11-17T09:53:51.140Z,1.87
2022-11-17T09:56:18.383Z,1.73
2022-11-17T09:58:48.498Z,1.53
2022-11-17T10:01:17.963Z,1.53
2022-11-17T10:03:47.860Z,1.60
2022-11-17T10:06:24.402Z,1.77
2022-11-17T10:09:03.000Z,1.70
2022-11-17T10:11:36.566Z,1.40
2022-11-17T10:14:11.098Z,1.40
2022-11-17T10:16:40.249Z,1.50
2022-11-17T10:19:27.299Z,1.53
2022-11-17T10:22:03.665Z,1.13
2022-11-17T10:24:55.208Z,3.57
2022-11-17T10:27:33.622Z,1.70
2022-11-17T10:30:25.014Z,1.33
2022-11-17T10:32:57.391Z,1.13
2022-11-17T10:35:30.839Z,1.10
2022-11-17T10:38:17.895Z,1.63
2022-11-17T10:40:46.966Z,1.70
2022-11-17T10:43:13.866Z,1.20
2022-11-17T10:46:14.469Z,1.90
2022-11-17T10:49:00.228Z,1.77
2022-11-17T10:51:29.929Z,1.57
2022-11-17T10:54:15.834Z,1.47
2022-11-17T10:56:45.737Z,2.07
2022-11-17T10:59:14.630Z,1.10
2022-11-17T11:01:44.264Z,1.43
2022-11-17T11:04:41.244Z,1.27
2022-11-17T11:07:22.529Z,1.30
2022-11-17T11:09:49.683Z,1.47
2022-11-17T11:12:25.134Z,1.93
2022-11-17T11:14:56.629Z,2.30
2022-11-17T11:17:27.618Z,1.57
2022-11-17T11:19:54.804Z,1.50
2022-11-17T11:22:42.424Z,1.73
2022-11-17T11:25:44.611Z,1.67
2022-11-17T11:28:41.261Z,1.67
2022-11-17T11:31:24.696Z,1.67
2022-11-17T11:34:01.832Z,0.90
2022-11-17T11:36:39.749Z,1.47
2022-11-17T11:39:29.295Z,0.97
2022-11-17T11:42:08.461Z,1.13
2022-11-17T11:44:35.924Z,1.17
2022-11-17T11:47:47.349Z,0.80
2022-11-17T11:50:22.040Z,1.10
2022-11-17T11:52:55.622Z,1.17
2022-11-17T11:55:31.886Z,0.90
2022-11-17T11:58:14.815Z,2.80
2022-11-17T12:00:44.470Z,1.40
2022-11-17T12:03:52.669Z,1.40
2022-11-17T12:06:40.217Z,0.77
2022-11-17T12:09:38.169Z,1.10
2022-11-17T12:12:13.585Z,1.50
2022-11-17T12:15:00.439Z,0.97
2022-11-17T12:17:27.431Z,2.23
2022-11-17T12:20:09.316Z,0.77
2022-11-17T12:22:37.815Z,1.03
2022-11-17T12:25:28.243Z,1.10
2022-11-17T12:27:55.375Z,1.83
2022-11-17T12:30:31.189Z,1.57
2022-11-17T12:32:59.702Z,1.97
2022-11-17T12:35:28.271Z,1.07
2022-11-17T12:38:17.050Z,1.13
2022-11-17T12:40:46.520Z,1.50
2022-11-17T12:43:16.495Z,0.80
2022-11-17T12:45:58.706Z,2.90
2022-11-17T12:48:37.634Z,1.93
2022-11-17T12:51:42.142Z,1.40
2022-11-17T12:54:28.233Z,0.97
2022-11-17T12:57:18.313Z,1.00
2022-11-17T12:59:45.334Z,0.90
2022-11-17T13:02:22.706Z,0.70
2022-11-17T13:04:55.257Z,1.00
2022-11-17T13:07:25.733Z,1.20
2022-11-17T13:09:57.931Z,1.20
2022-11-17T13:12:27.705Z,2.07
2022-11-17T13:14:56.666Z,2.20
2022-11-17T13:17:33.471Z,2.23
2022-11-17T13:20:25.086Z,2.47
2022-11-17T13:23:02.643Z,2.90
2022-11-17T13:25:30.824Z,1.10
2022-11-17T13:28:04.219Z,1.00
2022-11-17T13:30:33.446Z,1.40
2022-11-17T13:33:03.107Z,1.20
2022-11-17T13:35:35.514Z,2.70
2022-11-17T13:38:11.202Z,1.47
2022-11-17T13:40:40.728Z,2.23
2022-11-17T13:43:12.272Z,2.70
2022-11-17T13:45:40.591Z,0.70
2022-11-17T13:48:07.581Z,0.87
2022-11-17T13:50:37.003Z,1.37
2022-11-17T13:53:12.899Z,2.07
2022-11-17T13:55:46.257Z,2.67
2022-11-17T13:58:27.357Z,2.00
2022-11-17T14:00:57.660Z,4.53
2022-11-17T14:03:38.394Z,1.60
2022-11-17T14:06:10.639Z,1.60
2022-11-17T14:08:39.754Z,1.00
2022-11-17T14:11:12.159Z,1.40
2022-11-17T14:13:59.265Z,1.20
2022-11-17T14:16:29.672Z,1.20
2022-11-17T14:19:02.343Z,1.27
2022-11-17T14:21:30.119Z,0.87
2022-11-17T14:24:12.077Z,2.83
2022-11-17T14:26:47.251Z,1.23
2022-11-17T14:29:14.242Z,4.47
2022-11-17T14:31:41.158Z,2.60
2022-11-17T14:34:08.090Z,1.60
2022-11-17T14:36:36.332Z,1.63
2022-11-17T14:39:03.909Z,1.20
2022-11-17T14:41:30.716Z,1.27
2022-11-17T14:43:57.581Z,1.27
2022-11-17T14:46:26.373Z,4.23
2022-11-17T14:48:54.052Z,1.60
2022-11-17T14:51:21.480Z,2.83
2022-11-17T14:53:48.784Z,1.40
2022-11-17T14:56:18.279Z,4.77
2022-11-17T14:58:47.713Z,2.10
2022-11-17T15:01:21.021Z,1.17
2022-11-17T15:03:48.051Z,2.63
2022-11-17T15:06:19.287Z,0.93
2022-11-17T15:08:53.033Z,0.97
2022-11-17T15:11:20.196Z,1.90
2022-11-17T15:13:47.044Z,1.10
2022-11-17T15:16:13.901Z,1.40
2022-11-17T15:18:40.846Z,0.73
2022-11-17T15:21:10.464Z,1.20
2022-11-17T15:23:40.206Z,1.80
2022-11-17T15:26:10.732Z,1.63
2022-11-17T15:28:37.621Z,2.67
2022-11-17T15:31:18.025Z,1.97
2022-11-17T15:33:46.599Z,2.50
2022-11-17T15:36:19.087Z,1.30
2022-11-17T15:38:46.158Z,0.80
2022-11-17T15:41:14.312Z,2.97
2022-11-17T15:43:43.022Z,3.07
2022-11-17T15:46:15.420Z,1.27
2022-11-17T15:48:44.423Z,1.40
2022-11-17T15:51:17.249Z,3.03
2022-11-17T15:53:49.302Z,2.30
2022-11-17T15:56:21.560Z,1.70
2022-11-17T15:58:54.132Z,1.40
2022-11-17T16:01:25.155Z,3.33
2022-11-17T16:03:53.323Z,1.50
2022-11-17T16:06:20.687Z,3.23
2022-11-17T16:08:47.738Z,1.63
2022-11-17T16:11:14.791Z,2.03
2022-11-17T16:13:41.635Z,1.97
2022-11-17T16:16:15.236Z,1.83
2022-11-17T16:18:42.363Z,2.60
2022-11-17T16:21:12.550Z,3.23
2022-11-17T16:23:45.072Z,3.43
2022-11-17T16:26:13.800Z,4.33
2022-11-17T16:28:41.279Z,1.77
2022-11-17T16:31:13.829Z,2.37
2022-11-17T16:33:41.117Z,2.63
2022-11-17T16:36:08.974Z,2.23
2022-11-17T16:38:36.528Z,1.47
2022-11-17T16:41:03.485Z,2.67
2022-11-17T16:43:30.756Z,3.17
2022-11-17T16:45:57.711Z,2.17
2022-11-17T16:48:24.656Z,0.87
2022-11-17T16:50:51.592Z,4.70
2022-11-17T16:53:18.751Z,1.50
2022-11-17T16:55:45.581Z,1.80
2022-11-17T16:58:12.550Z,2.27
2022-11-17T17:00:39.673Z,3.37
2022-11-17T17:03:07.123Z,1.10
2022-11-17T17:05:39.508Z,1.83
2022-11-17T17:08:06.693Z,1.60
2022-11-17T17:10:33.641Z,2.13
2022-11-17T17:13:00.615Z,1.43
2022-11-17T17:15:27.474Z,3.10
2022-11-17T17:17:54.566Z,2.60
2022-11-17T17:20:21.624Z,2.50
2022-11-17T17:22:48.438Z,2.63
2022-11-17T17:25:15.514Z,3.20
2022-11-17T17:27:42.497Z,2.70
2022-11-17T17:30:09.852Z,4.00
2022-11-17T17:32:37.027Z,1.40
2022-11-17T17:35:04.265Z,2.80
2022-11-17T17:37:32.431Z,2.80
2022-11-17T17:39:59.894Z,2.57
2022-11-17T17:42:28.287Z,2.43
2022-11-17T17:44:55.458Z,2.10
2022-11-17T17:47:23.547Z,2.23
2022-11-17T17:49:50.887Z,3.27
2022-11-17T17:52:18.147Z,2.50
2022-11-17T17:54:45.253Z,3.60
2022-11-17T17:57:12.781Z,2.80
2022-11-17T17:59:40.116Z,3.03
2022-11-17T18:02:07.495Z,2.47
2022-11-17T18:04:34.894Z,2.37
2022-11-17T18:07:03.329Z,2.23
2022-11-17T18:09:30.660Z,3.37
2022-11-17T18:11:58.667Z,2.60
2022-11-17T18:14:26.039Z,2.23
2022-11-17T18:16:54.268Z,2.77
2022-11-17T18:19:21.504Z,3.50
2022-11-17T18:21:48.324Z,3.07
2022-11-17T18:24:15.311Z,2.90
2022-11-17T18:26:42.277Z,4.20
2022-11-17T18:29:14.816Z,2.67
2022-11-17T18:31:43.090Z,2.87
2022-11-17T18:34:22.427Z,2.73
2022-11-17T18:36:51.526Z,4.17
2022-11-17T18:39:19.215Z,3.97
2022-11-17T18:41:46.235Z,3.27
2022-11-17T18:44:19.919Z,3.10
2022-11-17T18:46:47.171Z,5.13
2022-11-17T18:49:14.510Z,2.20
2022-11-17T18:51:41.864Z,5.80
2022-11-17T18:54:11.360Z,3.37
2022-11-17T18:56:38.480Z,2.47
2022-11-17T18:59:11.734Z,3.37
2022-11-17T19:01:42.875Z,3.57
2022-11-17T19:04:13.189Z,2.70
2022-11-17T19:06:41.374Z,2.80
2022-11-17T19:09:08.572Z,3.30
2022-11-17T19:11:35.689Z,3.67
2022-11-17T19:14:04.248Z,3.87
2022-11-17T19:16:32.565Z,3.10
2022-11-17T19:18:59.549Z,3.40
2022-11-17T19:21:33.736Z,4.17
2022-11-17T19:24:02.836Z,4.57
2022-11-17T19:26:34.565Z,3.53
2022-11-17T19:29:11.198Z,3.50
2022-11-17T19:31:41.628Z,4.27
2022-11-17T19:34:08.661Z,3.23
2022-11-17T19:36:35.708Z,5.53
2022-11-17T19:39:03.099Z,3.43
2022-11-17T19:41:32.601Z,4.83
2022-11-17T19:44:03.981Z,3.43
2022-11-17T19:46:32.649Z,3.80
2022-11-17T19:49:00.186Z,4.60
2022-11-17T19:51:31.931Z,3.33
2022-11-17T19:54:02.794Z,4.30
2022-11-17T19:56:30.184Z,3.53
2022-11-17T19:58:57.703Z,3.73
2022-11-17T20:01:27.146Z,5.43
2022-11-17T20:03:55.319Z,4.93
2022-11-17T20:06:27.635Z,4.13
2022-11-17T20:08:57.500Z,5.03
2022-11-17T20:11:26.870Z,3.63
2022-11-17T20:13:55.553Z,5.03
2022-11-17T20:16:25.022Z,3.70
2022-11-17T20:18:54.778Z,5.13
2022-11-17T20:21:22.406Z,3.60
2022-11-17T20:23:49.700Z,3.73
2022-11-17T20:26:19.731Z,4.27
2022-11-17T20:28:48.083Z,4.00
2022-11-17T20:31:20.683Z,4.23
2022-11-17T20:33:49.232Z,5.03
2022-11-17T20:36:20.787Z,3.10
2022-11-17T20:38:53.228Z,6.10
2022-11-17T20:41:21.166Z,4.53
2022-11-17T20:43:50.018Z,4.70
2022-11-17T20:46:18.205Z,4.17
2022-11-17T20:48:45.454Z,3.40
2022-11-17T20:51:14.686Z,3.30
2022-11-17T20:53:42.088Z,3.30
2022-11-17T20:56:10.846Z,3.30
2022-11-17T20:58:38.104Z,4.47
2022-11-17T21:01:08.881Z,3.73
2022-11-17T21:03:36.599Z,3.27
2022-11-17T21:06:05.131Z,3.90
2022-11-17T21:08:35.850Z,3.50
2022-11-17T21:11:08.871Z,3.40
2022-11-17T21:13:37.558Z,3.70
2022-11-17T21:16:13.269Z,3.77
2022-11-17T21:18:47.310Z,3.40
2022-11-17T21:21:15.490Z,3.90
2022-11-17T21:23:46.815Z,3.97
2022-11-17T21:26:18.962Z,4.37
2022-11-17T21:28:47.034Z,4.67
2022-11-17T21:31:19.949Z,5.13
2022-11-17T21:33:47.324Z,4.77
2022-11-17T21:36:16.360Z,5.10
2022-11-17T21:38:45.695Z,4.97
2022-11-17T21:41:18.565Z,3.80
2022-11-17T21:43:48.120Z,4.40
2022-11-17T21:46:18.692Z,3.60
2022-11-17T21:48:46.993Z,3.80
2022-11-17T21:51:20.033Z,3.97
2022-11-17T21:53:47.947Z,3.60
2022-11-17T21:56:15.054Z,3.80
2022-11-17T21:58:42.655Z,3.93
2022-11-17T22:01:14.966Z,3.80
2022-11-17T22:03:42.832Z,4.73
2022-11-17T22:06:12.531Z,5.53
2022-11-17T22:08:41.624Z,3.80
2022-11-17T22:11:12.071Z,3.70
2022-11-17T22:13:40.582Z,4.37
2022-11-17T22:16:11.916Z,5.17
2022-11-17T22:18:39.656Z,4.87
2022-11-17T22:21:07.966Z,3.70
2022-11-17T22:23:35.993Z,3.80
2022-11-17T22:26:06.662Z,5.17
2022-11-17T22:28:33.901Z,5.70
2022-11-17T22:31:06.590Z,4.67
2022-11-17T22:33:34.001Z,3.97
2022-11-17T22:36:01.765Z,3.63
2022-11-17T22:38:30.826Z,3.87
2022-11-17T22:41:02.409Z,3.97
2022-11-17T22:43:30.015Z,5.03
2022-11-17T22:45:57.641Z,5.43
2022-11-17T22:48:25.154Z,3.53
2022-11-17T22:50:52.411Z,6.90
2022-11-17T22:53:19.432Z,5.60
2022-11-17T22:55:46.484Z,4.27
2022-11-17T22:58:16.000Z,3.97
2022-11-17T23:00:43.645Z,3.73
2022-11-17T23:03:12.626Z,3.70
2022-11-17T23:05:39.946Z,3.30
2022-11-17T23:08:09.970Z,4.40
2022-11-17T23:10:37.748Z,3.73
2022-11-17T23:13:04.658Z,3.37
2022-11-17T23:15:32.671Z,4.17
2022-11-17T23:17:59.696Z,3.50
2022-11-17T23:20:26.529Z,3.43
2022-11-17T23:22:54.311Z,5.17
2022-11-17T23:25:22.102Z,4.00
2022-11-17T23:27:49.627Z,3.60
2022-11-17T23:30:16.936Z,4.20
2022-11-17T23:32:43.857Z,5.13
2022-11-17T23:35:10.941Z,3.53
2022-11-17T23:37:37.857Z,4.83
2022-11-17T23:40:05.150Z,3.97
2022-11-17T23:42:32.865Z,5.03
2022-11-17T23:45:00.333Z,4.37
2022-11-17T23:47:27.135Z,3.60
2022-11-17T23:49:54.024Z,3.93
2022-11-17T23:52:20.913Z,4.33
2022-11-17T23:54:47.737Z,4.17
2022-11-17T23:57:14.568Z,4.20
2022-11-17T23:59:41.513Z,6.93
